sensor_id;sensor_type;location;lat;lon;timestamp;pressure;altitude;pressure_sealevel;temperature;humidity
70304;BME280;57712;48.752;11.348;2022-11-02T00:01:53;98155.38;;;8.88;100.00
70304;BME280;57712;48.752;11.348;2022-11-02T00:04:19;98148.38;;;8.87;100.00
70304;BME280;57712;48.752;11.348;2022-11-02T00:06:46;98146.78;;;8.96;100.00
70304;BME280;57712;48.752;11.348;2022-11-02T00:09:12;98140.53;;;8.96;100.00
70304;BME280;57712;48.752;11.348;2022-11-02T00:11:38;98148.34;;;8.94;100.00
70304;BME280;57712;48.752;11.348;2022-11-02T00:14:05;98142.88;;;8.90;100.00
70304;BME280;57712;48.752;11.348;2022-11-02T00:16:31;98139.38;;;8.86;100.00
70304;BME280;57712;48.752;11.348;2022-11-02T00:18:59;98144.44;;;8.95;100.00
70304;BME280;57712;48.752;11.348;2022-11-02T00:21:26;98145.25;;;8.88;100.00
70304;BME280;57712;48.752;11.348;2022-11-02T00:23:55;98139.00;;;8.81;100.00
70304;BME280;57712;48.752;11.348;2022-11-02T00:26:24;98148.38;;;8.87;100.00
70304;BME280;57712;48.752;11.348;2022-11-02T00:28:51;98161.63;;;8.78;100.00
70304;BME280;57712;48.752;11.348;2022-11-02T00:31:18;98151.47;;;8.82;100.00
70304;BME280;57712;48.752;11.348;2022-11-02T00:33:44;98160.06;;;8.77;100.00
70304;BME280;57712;48.752;11.348;2022-11-02T00:36:11;98151.06;;;8.73;100.00
70304;BME280;57712;48.752;11.348;2022-11-02T00:38:37;98158.09;;;8.74;100.00
70304;BME280;57712;48.752;11.348;2022-11-02T00:41:03;98163.56;;;8.70;100.00
70304;BME280;57712;48.752;11.348;2022-11-02T00:43:30;98166.31;;;8.66;100.00
70304;BME280;57712;48.752;11.348;2022-11-02T00:45:56;98164.75;;;8.65;100.00
70304;BME280;57712;48.752;11.348;2022-11-02T00:48:22;98167.88;;;8.67;100.00
70304;BME280;57712;48.752;11.348;2022-11-02T00:50:49;98171.34;;;8.64;100.00
70304;BME280;57712;48.752;11.348;2022-11-02T00:53:15;98173.31;;;8.60;100.00
70304;BME280;57712;48.752;11.348;2022-11-02T00:55:42;98174.09;;;8.57;100.00
70304;BME280;57712;48.752;11.348;2022-11-02T00:58:08;98170.22;;;8.55;100.00
70304;BME280;57712;48.752;11.348;2022-11-02T01:00:34;98170.19;;;8.58;100.00
70304;BME280;57712;48.752;11.348;2022-11-02T01:03:01;98177.19;;;8.52;100.00
70304;BME280;57712;48.752;11.348;2022-11-02T01:05:28;98176.44;;;8.48;100.00
70304;BME280;57712;48.752;11.348;2022-11-02T01:07:54;98188.13;;;8.52;100.00
70304;BME280;57712;48.752;11.348;2022-11-02T01:10:22;98186.16;;;8.38;100.00
70304;BME280;57712;48.752;11.348;2022-11-02T01:12:48;98183.44;;;8.38;100.00
70304;BME280;57712;48.752;11.348;2022-11-02T01:15:15;98166.63;;;8.26;100.00
70304;BME280;57712;48.752;11.348;2022-11-02T01:17:41;98176.75;;;8.32;100.00
70304;BME280;57712;48.752;11.348;2022-11-02T01:20:08;98176.81;;;8.36;100.00
70304;BME280;57712;48.752;11.348;2022-11-02T01:22:34;98172.50;;;8.35;100.00
70304;BME280;57712;48.752;11.348;2022-11-02T01:25:01;98180.66;;;8.31;100.00
70304;BME280;57712;48.752;11.348;2022-11-02T01:27:27;98177.91;;;8.24;100.00
70304;BME280;57712;48.752;11.348;2022-11-02T01:29:54;98181.81;;;8.27;100.00
70304;BME280;57712;48.752;11.348;2022-11-02T01:32:20;98184.94;;;8.32;100.00
70304;BME280;57712;48.752;11.348;2022-11-02T01:34:46;98180.25;;;8.29;100.00
70304;BME280;57712;48.752;11.348;2022-11-02T01:37:13;98176.75;;;8.25;100.00
70304;BME280;57712;48.752;11.348;2022-11-02T01:39:39;98175.56;;;8.30;100.00
70304;BME280;57712;48.752;11.348;2022-11-02T01:42:19;98184.94;;;8.29;100.00
70304;BME280;57712;48.752;11.348;2022-11-02T01:44:46;98186.88;;;8.32;100.00
70304;BME280;57712;48.752;11.348;2022-11-02T01:47:17;98180.25;;;8.33;100.00
70304;BME280;57712;48.752;11.348;2022-11-02T01:49:46;98177.97;;;8.42;100.00
70304;BME280;57712;48.752;11.348;2022-11-02T01:52:18;98179.91;;;8.38;100.00
70304;BME280;57712;48.752;11.348;2022-11-02T01:54:52;98185.78;;;8.40;100.00
70304;BME280;57712;48.752;11.348;2022-11-02T01:57:20;98181.88;;;8.41;100.00
70304;BME280;57712;48.752;11.348;2022-11-02T01:59:56;98173.69;;;8.41;100.00
70304;BME280;57712;48.752;11.348;2022-11-02T02:02:25;98182.66;;;8.42;100.00
70304;BME280;57712;48.752;11.348;2022-11-02T02:04:58;98181.47;;;8.43;100.00
70304;BME280;57712;48.752;11.348;2022-11-02T02:07:25;98181.47;;;8.39;100.00
70304;BME280;57712;48.752;11.348;2022-11-02T02:09:54;98182.69;;;8.45;100.00
70304;BME280;57712;48.752;11.348;2022-11-02T02:12:22;98179.16;;;8.48;100.00
70304;BME280;57712;48.752;11.348;2022-11-02T02:14:49;98179.53;;;8.50;100.00
70304;BME280;57712;48.752;11.348;2022-11-02T02:22:45;98189.69;;;8.60;100.00
70304;BME280;57712;48.752;11.348;2022-11-02T02:30:52;98194.41;;;8.67;100.00
70304;BME280;57712;48.752;11.348;2022-11-02T02:33:28;98197.09;;;8.53;100.00
70304;BME280;57712;48.752;11.348;2022-11-02T02:36:05;98191.66;;;8.71;100.00
70304;BME280;57712;48.752;11.348;2022-11-02T02:39:00;98198.66;;;8.64;100.00
70304;BME280;57712;48.752;11.348;2022-11-02T02:41:38;98197.91;;;8.67;100.00
70304;BME280;57712;48.752;11.348;2022-11-02T02:44:18;98196.72;;;8.61;100.00
70304;BME280;57712;48.752;11.348;2022-11-02T02:46:51;98198.28;;;8.73;100.00
70304;BME280;57712;48.752;11.348;2022-11-02T02:49:27;98199.44;;;8.61;100.00
70304;BME280;57712;48.752;11.348;2022-11-02T02:51:56;98193.59;;;8.56;100.00
70304;BME280;57712;48.752;11.348;2022-11-02T02:54:27;98198.28;;;8.55;100.00
70304;BME280;57712;48.752;11.348;2022-11-02T02:57:02;98200.59;;;8.53;100.00
70304;BME280;57712;48.752;11.348;2022-11-02T02:59:34;98198.28;;;8.55;100.00
70304;BME280;57712;48.752;11.348;2022-11-02T03:02:05;98196.34;;;8.56;100.00
70304;BME280;57712;48.752;11.348;2022-11-02T03:04:32;98195.94;;;8.57;100.00
70304;BME280;57712;48.752;11.348;2022-11-02T03:07:00;98192.03;;;8.48;100.00
70304;BME280;57712;48.752;11.348;2022-11-02T03:17:31;98213.53;;;8.67;100.00
70304;BME280;57712;48.752;11.348;2022-11-02T03:20:03;98212.72;;;8.74;100.00
70304;BME280;57712;48.752;11.348;2022-11-02T03:23:31;98213.91;;;8.69;100.00
70304;BME280;57712;48.752;11.348;2022-11-02T03:25:53;98216.25;;;8.78;100.00
70304;BME280;57712;48.752;11.348;2022-11-02T03:28:32;98223.69;;;8.77;100.00
70304;BME280;57712;48.752;11.348;2022-11-02T03:31:30;98227.59;;;8.87;100.00
70304;BME280;57712;48.752;11.348;2022-11-02T03:36:38;98228.75;;;8.89;100.00
70304;BME280;57712;48.752;11.348;2022-11-02T03:39:07;98240.47;;;8.97;100.00
70304;BME280;57712;48.752;11.348;2022-11-02T03:41:36;98235.00;;;8.97;100.00
70304;BME280;57712;48.752;11.348;2022-11-02T03:44:06;98224.84;;;9.15;100.00
70304;BME280;57712;48.752;11.348;2022-11-02T03:46:36;98226.41;;;9.16;100.00
70304;BME280;57712;48.752;11.348;2022-11-02T03:49:05;98226.41;;;9.20;100.00
70304;BME280;57712;48.752;11.348;2022-11-02T03:51:36;98226.00;;;9.25;100.00
70304;BME280;57712;48.752;11.348;2022-11-02T03:54:16;98237.75;;;9.18;100.00
70304;BME280;57712;48.752;11.348;2022-11-02T03:56:54;98240.47;;;9.33;100.00
70304;BME280;57712;48.752;11.348;2022-11-02T03:59:22;98233.03;;;9.26;100.00
70304;BME280;57712;48.752;11.348;2022-11-02T04:01:49;98242.03;;;9.30;100.00
70304;BME280;57712;48.752;11.348;2022-11-02T04:04:17;98231.88;;;9.31;100.00
70304;BME280;57712;48.752;11.348;2022-11-02T04:06:45;98232.66;;;9.20;100.00
70304;BME280;57712;48.752;11.348;2022-11-02T04:09:13;98226.03;;;9.29;100.00
70304;BME280;57712;48.752;11.348;2022-11-02T04:11:39;98222.50;;;9.24;100.00
70304;BME280;57712;48.752;11.348;2022-11-02T04:14:24;98219.38;;;9.22;100.00
70304;BME280;57712;48.752;11.348;2022-11-02T04:17:08;98212.72;;;9.27;100.00
70304;BME280;57712;48.752;11.348;2022-11-02T04:19:55;98198.69;;;9.29;100.00
70304;BME280;57712;48.752;11.348;2022-11-02T04:22:22;98204.91;;;9.25;100.00
70304;BME280;57712;48.752;11.348;2022-11-02T04:25:13;98218.97;;;9.35;100.00
70304;BME280;57712;48.752;11.348;2022-11-02T04:27:51;98223.25;;;9.36;100.00
70304;BME280;57712;48.752;11.348;2022-11-02T04:30:20;98228.75;;;9.32;100.00
70304;BME280;57712;48.752;11.348;2022-11-02T04:32:49;98227.97;;;9.03;100.00
70304;BME280;57712;48.752;11.348;2022-11-02T04:35:35;98231.88;;;9.13;100.00
70304;BME280;57712;48.752;11.348;2022-11-02T04:38:02;98242.03;;;9.12;100.00
70304;BME280;57712;48.752;11.348;2022-11-02T04:40:48;98246.72;;;8.87;100.00
70304;BME280;57712;48.752;11.348;2022-11-02T04:43:34;98245.91;;;8.76;100.00
70304;BME280;57712;48.752;11.348;2022-11-02T04:46:00;98247.50;;;8.91;100.00
70304;BME280;57712;48.752;11.348;2022-11-02T04:48:27;98250.56;;;8.75;100.00
70304;BME280;57712;48.752;11.348;2022-11-02T04:50:53;98257.66;;;8.87;100.00
70304;BME280;57712;48.752;11.348;2022-11-02T04:53:19;98259.97;;;8.88;100.00
70304;BME280;57712;48.752;11.348;2022-11-02T04:55:46;98261.16;;;9.02;100.00
70304;BME280;57712;48.752;11.348;2022-11-02T04:58:12;98246.72;;;9.01;100.00
70304;BME280;57712;48.752;11.348;2022-11-02T05:00:38;98255.31;;;9.10;100.00
70304;BME280;57712;48.752;11.348;2022-11-02T05:03:05;98245.94;;;9.18;100.00
70304;BME280;57712;48.752;11.348;2022-11-02T05:05:37;98249.44;;;9.01;100.00
70304;BME280;57712;48.752;11.348;2022-11-02T05:08:03;98251.78;;;9.06;100.00
70304;BME280;57712;48.752;11.348;2022-11-02T05:10:30;98246.72;;;9.12;100.00
70304;BME280;57712;48.752;11.348;2022-11-02T05:12:58;98251.41;;;9.25;100.00
70304;BME280;57712;48.752;11.348;2022-11-02T05:15:25;98242.00;;;9.26;100.00
70304;BME280;57712;48.752;11.348;2022-11-02T05:17:51;98242.81;;;9.31;100.00
70304;BME280;57712;48.752;11.348;2022-11-02T05:20:17;98245.94;;;9.40;100.00
70304;BME280;57712;48.752;11.348;2022-11-02T05:22:44;98238.50;;;9.33;100.00
70304;BME280;57712;48.752;11.348;2022-11-02T05:25:10;98235.75;;;9.37;100.00
70304;BME280;57712;48.752;11.348;2022-11-02T05:27:37;98248.25;;;9.38;100.00
70304;BME280;57712;48.752;11.348;2022-11-02T05:30:04;98249.84;;;9.39;100.00
70304;BME280;57712;48.752;11.348;2022-11-02T05:32:31;98260.00;;;9.24;100.00
70304;BME280;57712;48.752;11.348;2022-11-02T05:34:57;98251.41;;;9.33;100.00
70304;BME280;57712;48.752;11.348;2022-11-02T05:37:23;98253.72;;;9.38;100.00
70304;BME280;57712;48.752;11.348;2022-11-02T05:39:50;98257.63;;;9.37;100.00
70304;BME280;57712;48.752;11.348;2022-11-02T05:42:16;98254.13;;;9.40;100.00
70304;BME280;57712;48.752;11.348;2022-11-02T05:44:42;98244.75;;;9.44;100.00
70304;BME280;57712;48.752;11.348;2022-11-02T05:47:09;98252.56;;;9.32;100.00
70304;BME280;57712;48.752;11.348;2022-11-02T05:49:35;98256.84;;;9.25;100.00
70304;BME280;57712;48.752;11.348;2022-11-02T05:52:01;98258.41;;;9.26;100.00
70304;BME280;57712;48.752;11.348;2022-11-02T05:54:28;98260.78;;;9.39;100.00
70304;BME280;57712;48.752;11.348;2022-11-02T05:56:55;98263.09;;;9.44;100.00
70304;BME280;57712;48.752;11.348;2022-11-02T05:59:22;98271.31;;;9.15;100.00
70304;BME280;57712;48.752;11.348;2022-11-02T06:01:48;98277.97;;;9.11;100.00
70304;BME280;57712;48.752;11.348;2022-11-02T06:04:15;98274.03;;;9.01;100.00
70304;BME280;57712;48.752;11.348;2022-11-02T06:06:41;98285.00;;;9.19;100.00
70304;BME280;57712;48.752;11.348;2022-11-02T06:09:08;98286.53;;;9.34;100.00
70304;BME280;57712;48.752;11.348;2022-11-02T06:11:34;98282.66;;;9.39;100.00
70304;BME280;57712;48.752;11.348;2022-11-02T06:14:00;98284.59;;;9.31;100.00
70304;BME280;57712;48.752;11.348;2022-11-02T06:16:28;98290.06;;;9.20;100.00
70304;BME280;57712;48.752;11.348;2022-11-02T06:18:55;98290.47;;;9.30;100.00
70304;BME280;57712;48.752;11.348;2022-11-02T06:21:22;98293.59;;;9.32;100.00
70304;BME280;57712;48.752;11.348;2022-11-02T06:23:49;98289.69;;;9.40;100.00
70304;BME280;57712;48.752;11.348;2022-11-02T06:26:15;98295.91;;;9.22;100.00
70304;BME280;57712;48.752;11.348;2022-11-02T06:28:42;98298.25;;;9.35;100.00
70304;BME280;57712;48.752;11.348;2022-11-02T06:31:08;98307.25;;;9.35;100.00
70304;BME280;57712;48.752;11.348;2022-11-02T06:33:34;98304.91;;;9.37;100.00
70304;BME280;57712;48.752;11.348;2022-11-02T06:36:01;98307.63;;;9.26;100.00
70304;BME280;57712;48.752;11.348;2022-11-02T06:38:27;98313.91;;;9.31;100.00
70304;BME280;57712;48.752;11.348;2022-11-02T06:40:57;98318.19;;;9.32;100.00
70304;BME280;57712;48.752;11.348;2022-11-02T06:43:24;98318.56;;;9.19;100.00
70304;BME280;57712;48.752;11.348;2022-11-02T06:45:55;98323.28;;;9.30;100.00
70304;BME280;57712;48.752;11.348;2022-11-02T06:48:22;98333.41;;;9.33;100.00
70304;BME280;57712;48.752;11.348;2022-11-02T06:50:49;98349.06;;;9.43;100.00
70304;BME280;57712;48.752;11.348;2022-11-02T06:53:15;98348.25;;;9.32;100.00
70304;BME280;57712;48.752;11.348;2022-11-02T06:55:42;98346.31;;;9.36;100.00
70304;BME280;57712;48.752;11.348;2022-11-02T06:58:08;98359.59;;;9.41;100.00
70304;BME280;57712;48.752;11.348;2022-11-02T07:00:35;98352.16;;;9.23;100.00
70304;BME280;57712;48.752;11.348;2022-11-02T07:03:03;98347.84;;;9.15;100.00
70304;BME280;57712;48.752;11.348;2022-11-02T07:05:31;98350.56;;;9.12;100.00
70304;BME280;57712;48.752;11.348;2022-11-02T07:07:58;98364.28;;;9.44;100.00
70304;BME280;57712;48.752;11.348;2022-11-02T07:10:25;98360.78;;;9.43;100.00
70304;BME280;57712;48.752;11.348;2022-11-02T07:12:53;98361.19;;;9.49;100.00
70304;BME280;57712;48.752;11.348;2022-11-02T07:15:21;98359.22;;;9.28;100.00
70304;BME280;57712;48.752;11.348;2022-11-02T07:17:47;98363.13;;;9.55;100.00
70304;BME280;57712;48.752;11.348;2022-11-02T07:20:14;98366.25;;;9.61;100.00
70304;BME280;57712;48.752;11.348;2022-11-02T07:22:41;98372.13;;;9.70;100.00
70304;BME280;57712;48.752;11.348;2022-11-02T07:25:08;98365.09;;;9.51;100.00
70304;BME280;57712;48.752;11.348;2022-11-02T07:27:38;98370.16;;;9.39;100.00
70304;BME280;57712;48.752;11.348;2022-11-02T07:30:06;98368.59;;;9.52;100.00
70304;BME280;57712;48.752;11.348;2022-11-02T07:32:40;98366.25;;;9.58;100.00
70304;BME280;57712;48.752;11.348;2022-11-02T07:35:08;98368.19;;;9.75;100.00
70304;BME280;57712;48.752;11.348;2022-11-02T07:37:34;98369.38;;;9.77;100.00
70304;BME280;57712;48.752;11.348;2022-11-02T07:40:01;98369.38;;;9.77;100.00
70304;BME280;57712;48.752;11.348;2022-11-02T07:42:29;98370.16;;;9.81;100.00
70304;BME280;57712;48.752;11.348;2022-11-02T07:44:55;98374.84;;;9.56;100.00
70304;BME280;57712;48.752;11.348;2022-11-02T07:47:22;98377.19;;;9.40;100.00
70304;BME280;57712;48.752;11.348;2022-11-02T07:49:48;98382.63;;;9.47;100.00
70304;BME280;57712;48.752;11.348;2022-11-02T07:52:14;98380.31;;;9.77;100.00
70304;BME280;57712;48.752;11.348;2022-11-02T07:54:41;98381.09;;;9.78;100.00
70304;BME280;57712;48.752;11.348;2022-11-02T07:57:10;98374.84;;;9.63;100.00
70304;BME280;57712;48.752;11.348;2022-11-02T07:59:36;98377.59;;;9.81;100.00
70304;BME280;57712;48.752;11.348;2022-11-02T08:02:02;98378.75;;;9.91;100.00
70304;BME280;57712;48.752;11.348;2022-11-02T08:04:29;98379.13;;;9.96;100.00
70304;BME280;57712;48.752;11.348;2022-11-02T08:06:57;98373.66;;;9.86;100.00
70304;BME280;57712;48.752;11.348;2022-11-02T08:09:24;98373.63;;;10.18;100.00
70304;BME280;57712;48.752;11.348;2022-11-02T08:11:50;98373.19;;;10.40;100.00
70304;BME280;57712;48.752;11.348;2022-11-02T08:14:16;98374.41;;;10.32;100.00
70304;BME280;57712;48.752;11.348;2022-11-02T08:16:42;98384.22;;;10.23;100.00
70304;BME280;57712;48.752;11.348;2022-11-02T08:19:09;98380.28;;;10.27;100.00
70304;BME280;57712;48.752;11.348;2022-11-02T08:21:35;98385.38;;;10.25;100.00
70304;BME280;57712;48.752;11.348;2022-11-02T08:24:02;98397.88;;;10.33;100.00
70304;BME280;57712;48.752;11.348;2022-11-02T08:26:28;98392.41;;;10.08;100.00
70304;BME280;57712;48.752;11.348;2022-11-02T08:28:54;98400.22;;;10.31;100.00
70304;BME280;57712;48.752;11.348;2022-11-02T08:31:21;98397.41;;;10.56;100.00
70304;BME280;57712;48.752;11.348;2022-11-02T08:33:47;98399.44;;;10.31;100.00
70304;BME280;57712;48.752;11.348;2022-11-02T08:36:13;98398.25;;;10.43;100.00
70304;BME280;57712;48.752;11.348;2022-11-02T08:38:39;98395.13;;;10.19;100.00
70304;BME280;57712;48.752;11.348;2022-11-02T08:41:07;98390.84;;;10.00;100.00
70304;BME280;57712;48.752;11.348;2022-11-02T08:43:33;98397.50;;;9.96;100.00
70304;BME280;57712;48.752;11.348;2022-11-02T08:46:00;98396.34;;;9.75;100.00
70304;BME280;57712;48.752;11.348;2022-11-02T08:48:40;98395.94;;;10.02;100.00
70304;BME280;57712;48.752;11.348;2022-11-02T08:51:07;98387.72;;;10.23;100.00
70304;BME280;57712;48.752;11.348;2022-11-02T08:53:34;98392.00;;;10.31;100.00
70304;BME280;57712;48.752;11.348;2022-11-02T08:56:00;98397.88;;;10.33;100.00
70304;BME280;57712;48.752;11.348;2022-11-02T08:58:26;98389.81;;;10.99;100.00
70304;BME280;57712;48.752;11.348;2022-11-02T09:00:54;98389.31;;;11.19;100.00
70304;BME280;57712;48.752;11.348;2022-11-02T09:03:20;98386.31;;;10.95;100.00
70304;BME280;57712;48.752;11.348;2022-11-02T09:05:57;98382.38;;;10.96;100.00
70304;BME280;57712;48.752;11.348;2022-11-02T09:08:23;98376.13;;;10.96;100.00
70304;BME280;57712;48.752;11.348;2022-11-02T09:10:51;98370.56;;;11.07;100.00
70304;BME280;57712;48.752;11.348;2022-11-02T09:13:19;98382.47;;;10.75;100.00
70304;BME280;57712;48.752;11.348;2022-11-02T09:15:53;98383.25;;;10.72;100.00
70304;BME280;57712;48.752;11.348;2022-11-02T09:18:20;98387.22;;;10.60;100.00
70304;BME280;57712;48.752;11.348;2022-11-02T09:20:47;98384.72;;;10.98;100.00
70304;BME280;57712;48.752;11.348;2022-11-02T09:23:15;98384.69;;;11.02;100.00
70304;BME280;57712;48.752;11.348;2022-11-02T09:25:41;98387.44;;;11.02;100.00
70304;BME280;57712;48.752;11.348;2022-11-02T09:28:08;98391.31;;;11.08;100.00
70304;BME280;57712;48.752;11.348;2022-11-02T09:30:35;98388.16;;;11.13;100.00
70304;BME280;57712;48.752;11.348;2022-11-02T09:33:04;98382.66;;;11.13;100.00
70304;BME280;57712;48.752;11.348;2022-11-02T09:35:35;98390.81;;;11.31;100.00
70304;BME280;57712;48.752;11.348;2022-11-02T09:38:02;98383.00;;;11.22;100.00
70304;BME280;57712;48.752;11.348;2022-11-02T09:40:35;98388.91;;;11.20;100.00
70304;BME280;57712;48.752;11.348;2022-11-02T09:43:08;98392.25;;;11.46;100.00
70304;BME280;57712;48.752;11.348;2022-11-02T09:45:57;98388.09;;;11.79;100.00
70304;BME280;57712;48.752;11.348;2022-11-02T09:48:32;98379.50;;;11.73;100.00
70304;BME280;57712;48.752;11.348;2022-11-02T09:51:13;98388.91;;;11.79;100.00
70304;BME280;57712;48.752;11.348;2022-11-02T09:53:51;98391.13;;;11.95;100.00
70304;BME280;57712;48.752;11.348;2022-11-02T09:56:20;98391.25;;;11.81;100.00
70304;BME280;57712;48.752;11.348;2022-11-02T09:59:19;98392.00;;;11.85;100.00
70304;BME280;57712;48.752;11.348;2022-11-02T10:04:31;98393.94;;;11.88;100.00
70304;BME280;57712;48.752;11.348;2022-11-02T10:10:18;98393.78;;;12.43;100.00
70304;BME280;57712;48.752;11.348;2022-11-02T10:18:32;98393.16;;;12.29;100.00
70304;BME280;57712;48.752;11.348;2022-11-02T10:21:00;98396.97;;;12.42;100.00
70304;BME280;57712;48.752;11.348;2022-11-02T10:23:37;98396.25;;;12.68;100.00
70304;BME280;57712;48.752;11.348;2022-11-02T10:26:05;98388.66;;;12.80;100.00
70304;BME280;57712;48.752;11.348;2022-11-02T10:28:37;98384.00;;;12.77;100.00
70304;BME280;57712;48.752;11.348;2022-11-02T10:31:20;98383.34;;;12.96;100.00
70304;BME280;57712;48.752;11.348;2022-11-02T10:33:48;98385.91;;;13.10;100.00
70304;BME280;57712;48.752;11.348;2022-11-02T10:39:32;98381.50;;;13.47;100.00
70304;BME280;57712;48.752;11.348;2022-11-02T10:47:46;98392.31;;;14.08;100.00
70304;BME280;57712;48.752;11.348;2022-11-02T10:50:40;98392.75;;;14.26;100.00
70304;BME280;57712;48.752;11.348;2022-11-02T10:53:12;98385.13;;;13.67;100.00
70304;BME280;57712;48.752;11.348;2022-11-02T10:58:39;98393.03;;;13.89;100.00
70304;BME280;57712;48.752;11.348;2022-11-02T11:01:08;98392.16;;;14.38;100.00
70304;BME280;57712;48.752;11.348;2022-11-02T11:03:58;98391.19;;;14.25;100.00
70304;BME280;57712;48.752;11.348;2022-11-02T11:06:30;98393.09;;;14.08;100.00
70304;BME280;57712;48.752;11.348;2022-11-02T11:09:04;98392.38;;;13.54;100.00
70304;BME280;57712;48.752;11.348;2022-11-02T11:11:35;98389.91;;;14.10;100.00
70304;BME280;57712;48.752;11.348;2022-11-02T11:16:55;98386.84;;;14.04;100.00
70304;BME280;57712;48.752;11.348;2022-11-02T11:19:47;98383.28;;;14.27;100.00
70304;BME280;57712;48.752;11.348;2022-11-02T11:24:51;98385.56;;;14.76;99.14
70304;BME280;57712;48.752;11.348;2022-11-02T11:29:54;98381.34;;;15.07;97.64
70304;BME280;57712;48.752;11.348;2022-11-02T11:32:25;98379.69;;;14.93;94.06
70304;BME280;57712;48.752;11.348;2022-11-02T11:34:59;98372.44;;;14.99;91.52
70304;BME280;57712;48.752;11.348;2022-11-02T11:37:26;98369.97;;;15.05;91.84
70304;BME280;57712;48.752;11.348;2022-11-02T11:40:02;98363.34;;;15.19;92.70
70304;BME280;57712;48.752;11.348;2022-11-02T11:42:33;98358.88;;;14.69;90.91
70304;BME280;57712;48.752;11.348;2022-11-02T11:45:16;98358.81;;;14.92;90.20
70304;BME280;57712;48.752;11.348;2022-11-02T11:47:44;98365.13;;;14.53;93.43
70304;BME280;57712;48.752;11.348;2022-11-02T11:50:13;98358.31;;;14.58;92.99
70304;BME280;57712;48.752;11.348;2022-11-02T11:53:25;98357.72;;;14.70;94.21
70304;BME280;57712;48.752;11.348;2022-11-02T11:55:54;98359.88;;;14.59;91.49
70304;BME280;57712;48.752;11.348;2022-11-02T11:58:30;98363.25;;;14.47;93.72
70304;BME280;57712;48.752;11.348;2022-11-02T12:03:50;98368.56;;;14.14;95.78
70304;BME280;57712;48.752;11.348;2022-11-02T12:06:27;98359.69;;;14.26;95.51
70304;BME280;57712;48.752;11.348;2022-11-02T12:11:57;98364.22;;;14.36;98.62
70304;BME280;57712;48.752;11.348;2022-11-02T12:22:22;98347.66;;;13.97;99.97
70304;BME280;57712;48.752;11.348;2022-11-02T12:33:24;98338.41;;;13.83;99.51
70304;BME280;57712;48.752;11.348;2022-11-02T12:36:06;98342.63;;;13.68;100.00
70304;BME280;57712;48.752;11.348;2022-11-02T12:38:48;98353.44;;;13.79;100.00
70304;BME280;57712;48.752;11.348;2022-11-02T12:46:56;98348.47;;;13.70;100.00
70304;BME280;57712;48.752;11.348;2022-11-02T12:54:54;98337.72;;;13.79;100.00
70304;BME280;57712;48.752;11.348;2022-11-02T12:57:23;98338.31;;;13.91;99.32
70304;BME280;57712;48.752;11.348;2022-11-02T12:59:57;98329.91;;;13.98;99.76
70304;BME280;57712;48.752;11.348;2022-11-02T13:02:29;98332.16;;;14.03;98.77
70304;BME280;57712;48.752;11.348;2022-11-02T13:05:03;98332.53;;;14.05;99.87
70304;BME280;57712;48.752;11.348;2022-11-02T13:07:48;98333.09;;;14.16;94.55
70304;BME280;57712;48.752;11.348;2022-11-02T13:10:23;98327.78;;;14.29;96.48
70304;BME280;57712;48.752;11.348;2022-11-02T13:12:56;98323.22;;;13.99;97.12
70304;BME280;57712;48.752;11.348;2022-11-02T13:15:24;98319.91;;;14.27;96.58
70304;BME280;57712;48.752;11.348;2022-11-02T13:17:59;98321.56;;;14.44;94.76
70304;BME280;57712;48.752;11.348;2022-11-02T13:20:34;98328.16;;;14.51;94.51
70304;BME280;57712;48.752;11.348;2022-11-02T13:23:22;98322.53;;;14.34;95.02
70304;BME280;57712;48.752;11.348;2022-11-02T13:25:57;98313.47;;;14.34;93.92
70304;BME280;57712;48.752;11.348;2022-11-02T13:28:42;98314.19;;;14.58;92.56
70304;BME280;57712;48.752;11.348;2022-11-02T13:31:25;98317.97;;;15.04;89.39
70304;BME280;57712;48.752;11.348;2022-11-02T13:33:55;98306.44;;;15.41;85.99
70304;BME280;57712;48.752;11.348;2022-11-02T13:36:22;98306.19;;;15.68;85.16
70304;BME280;57712;48.752;11.348;2022-11-02T13:39:01;98308.50;;;15.37;84.79
70304;BME280;57712;48.752;11.348;2022-11-02T13:49:55;98301.06;;;15.18;87.50
70304;BME280;57712;48.752;11.348;2022-11-02T13:55:00;98294.25;;;14.30;86.70
70304;BME280;57712;48.752;11.348;2022-11-02T13:57:34;98300.13;;;14.72;86.66
70304;BME280;57712;48.752;11.348;2022-11-02T14:00:05;98296.09;;;14.57;88.11
70304;BME280;57712;48.752;11.348;2022-11-02T14:02:36;98298.00;;;14.20;88.22
70304;BME280;57712;48.752;11.348;2022-11-02T14:05:07;98300.19;;;14.09;88.47
70304;BME280;57712;48.752;11.348;2022-11-02T14:07:37;98298.69;;;14.24;89.06
70304;BME280;57712;48.752;11.348;2022-11-02T14:10:08;98295.69;;;14.38;89.24
70304;BME280;57712;48.752;11.348;2022-11-02T14:12:45;98283.88;;;14.18;90.93
70304;BME280;57712;48.752;11.348;2022-11-02T14:33:39;98291.81;;;13.93;89.71
70304;BME280;57712;48.752;11.348;2022-11-02T14:39:07;98291.06;;;13.92;90.13
70304;BME280;57712;48.752;11.348;2022-11-02T14:44:46;98288.16;;;13.99;89.97
70304;BME280;57712;48.752;11.348;2022-11-02T14:47:27;98294.66;;;13.89;90.53
70304;BME280;57712;48.752;11.348;2022-11-02T14:49:57;98290.34;;;13.88;91.64
70304;BME280;57712;48.752;11.348;2022-11-02T14:52:31;98285.47;;;13.76;92.67
70304;BME280;57712;48.752;11.348;2022-11-02T14:55:18;98279.22;;;13.72;89.72
70304;BME280;57712;48.752;11.348;2022-11-02T14:58:36;98276.78;;;13.77;92.13
70304;BME280;57712;48.752;11.348;2022-11-02T15:12:34;98286.28;;;13.49;95.57
70304;BME280;57712;48.752;11.348;2022-11-02T15:19:50;98280.00;;;13.25;97.88
70304;BME280;57712;48.752;11.348;2022-11-02T15:22:31;98283.53;;;13.26;98.44
70304;BME280;57712;48.752;11.348;2022-11-02T15:25:25;98284.03;;;13.17;99.86